createdAt,value
2023-06-06T00:03:07.891Z,14.87
2023-06-06T00:08:09.851Z,14.88
2023-06-06T00:13:15.186Z,14.92
2023-06-06T00:18:17.291Z,14.96
2023-06-06T00:23:18.909Z,15.01
2023-06-06T00:28:20.710Z,15.07
2023-06-06T00:33:22.324Z,15.11
2023-06-06T00:38:23.907Z,15.05
2023-06-06T00:43:25.516Z,15.01
2023-06-06T00:48:27.230Z,14.91
2023-06-06T00:53:29.876Z,14.86
2023-06-06T00:58:32.208Z,14.83
2023-06-06T01:03:36.216Z,14.69
2023-06-06T01:08:38.480Z,14.59
2023-06-06T01:13:52.911Z,14.48
2023-06-06T01:18:57.379Z,14.35
2023-06-06T01:23:59.156Z,14.19
2023-06-06T01:29:00.938Z,14.18
2023-06-06T01:34:15.350Z,14.18
2023-06-06T01:39:20.801Z,14.19
2023-06-06T01:44:23.182Z,14.07
2023-06-06T01:49:26.331Z,13.98
2023-06-06T01:54:29.692Z,13.83
2023-06-06T01:59:31.750Z,13.63
2023-06-06T02:04:34.732Z,13.46
2023-06-06T02:09:36.380Z,13.40
2023-06-06T02:14:38.502Z,13.43
2023-06-06T02:19:41.180Z,13.23
2023-06-06T02:24:44.232Z,12.97
2023-06-06T02:29:47.119Z,12.83
2023-06-06T02:34:48.807Z,13.04
2023-06-06T02:39:50.412Z,13.14
2023-06-06T02:44:52.084Z,13.21
2023-06-06T02:49:53.755Z,13.18
2023-06-06T02:54:56.440Z,13.28
2023-06-06T03:00:00.739Z,13.35
2023-06-06T03:05:04.419Z,13.44
2023-06-06T03:10:07.302Z,13.35
2023-06-06T03:15:15.085Z,13.35
2023-06-06T03:20:19.710Z,13.34
2023-06-06T03:25:30.092Z,13.32
2023-06-06T03:30:31.796Z,13.17
2023-06-06T03:35:36.001Z,13.20
2023-06-06T03:40:39.746Z,13.34
2023-06-06T03:45:41.501Z,13.36
2023-06-06T03:50:43.520Z,13.43
2023-06-06T03:55:45.875Z,13.46
2023-06-06T04:00:47.476Z,13.55
2023-06-06T04:05:49.796Z,13.68
2023-06-06T04:10:52.629Z,13.83
2023-06-06T04:15:54.514Z,14.01
2023-06-06T04:20:56.285Z,14.11
2023-06-06T04:25:57.977Z,14.27
2023-06-06T04:31:01.122Z,14.46
2023-06-06T04:36:06.712Z,14.64
2023-06-06T04:41:25.195Z,14.83
2023-06-06T04:46:32.088Z,15.05
2023-06-06T04:51:34.525Z,15.17
2023-06-06T04:56:36.646Z,15.24
2023-06-06T05:01:39.389Z,15.32
2023-06-06T05:06:41.279Z,15.38
2023-06-06T05:11:47.915Z,15.48
2023-06-06T05:16:52.475Z,15.58
2023-06-06T05:21:54.128Z,15.74
2023-06-06T05:26:58.588Z,15.78
2023-06-06T05:32:00.413Z,15.81
2023-06-06T05:37:02.299Z,15.91
2023-06-06T05:42:04.338Z,15.82
2023-06-06T05:47:06.313Z,15.96
2023-06-06T05:52:07.864Z,16.15
2023-06-06T05:57:20.967Z,16.39
2023-06-06T06:02:24.033Z,16.64
2023-06-06T06:07:25.987Z,16.75
2023-06-06T06:12:27.634Z,16.91
2023-06-06T06:17:29.214Z,17.20
2023-06-06T06:22:30.834Z,17.47
2023-06-06T06:27:32.551Z,17.81
2023-06-06T06:32:35.094Z,18.06
2023-06-06T06:37:41.465Z,18.24
2023-06-06T06:42:45.100Z,18.53
2023-06-06T06:47:56.534Z,19.02
2023-06-06T06:52:58.790Z,19.26
2023-06-06T06:58:00.772Z,19.51
2023-06-06T07:03:05.593Z,19.73
2023-06-06T07:08:07.799Z,20.00
2023-06-06T07:13:09.757Z,20.20
2023-06-06T07:18:13.613Z,20.41
2023-06-06T07:23:15.263Z,20.73
2023-06-06T07:28:16.924Z,21.01
2023-06-06T07:33:18.563Z,21.20
2023-06-06T07:38:24.542Z,21.47
2023-06-06T07:43:26.227Z,21.73
2023-06-06T07:48:27.871Z,21.96
2023-06-06T07:53:30.696Z,21.97
2023-06-06T07:58:53.604Z,22.05
2023-06-06T08:03:55.700Z,22.08
2023-06-06T08:08:58.984Z,22.61
2023-06-06T08:14:00.935Z,22.92
2023-06-06T08:19:02.620Z,23.12
2023-06-06T08:24:04.586Z,23.12
2023-06-06T08:29:06.520Z,23.09
2023-06-06T08:34:08.136Z,23.06
2023-06-06T08:39:09.736Z,23.19
2023-06-06T08:44:12.563Z,23.20
2023-06-06T08:49:18.350Z,23.60
2023-06-06T08:54:21.341Z,23.60
2023-06-06T08:59:23.570Z,23.69
2023-06-06T09:04:25.666Z,23.39
2023-06-06T09:09:29.979Z,23.36
2023-06-06T09:14:32.927Z,23.31
2023-06-06T09:19:34.615Z,23.33
2023-06-06T09:24:43.911Z,23.35
2023-06-06T09:29:48.633Z,23.58
2023-06-06T09:34:50.291Z,23.72
2023-06-06T09:40:13.905Z,23.76
2023-06-06T09:45:17.265Z,23.68
2023-06-06T09:50:21.057Z,23.82
2023-06-06T09:55:24.265Z,23.91
2023-06-06T10:00:35.416Z,24.05
2023-06-06T10:05:39.111Z,23.97
2023-06-06T10:10:45.595Z,24.07
2023-06-06T10:15:48.338Z,24.36
2023-06-06T10:20:50.079Z,24.48
2023-06-06T10:25:52.821Z,24.17
2023-06-06T10:31:08.062Z,24.19
2023-06-06T10:36:14.940Z,24.42
2023-06-06T10:41:17.653Z,24.46
2023-06-06T10:46:19.526Z,24.54
2023-06-06T10:51:32.640Z,24.85
2023-06-06T10:56:34.377Z,25.13
2023-06-06T11:01:37.524Z,25.12
2023-06-06T11:06:39.527Z,25.27
2023-06-06T11:11:42.821Z,25.36
2023-06-06T11:16:47.190Z,25.49
2023-06-06T11:21:50.682Z,25.31
2023-06-06T11:26:54.983Z,25.32
2023-06-06T11:32:00.730Z,25.42
2023-06-06T11:37:02.942Z,25.44
2023-06-06T11:42:04.905Z,25.58
2023-06-06T11:47:10.188Z,25.67
2023-06-06T11:52:12.761Z,25.71
2023-06-06T11:57:15.163Z,25.63
2023-06-06T12:02:16.924Z,25.56
2023-06-06T12:07:19.892Z,25.68
2023-06-06T12:12:21.552Z,25.60
2023-06-06T12:17:25.318Z,25.63
2023-06-06T12:22:34.689Z,25.65
2023-06-06T12:27:39.430Z,25.79
2023-06-06T12:32:41.523Z,26.00
2023-06-06T12:37:48.910Z,26.35
2023-06-06T12:42:54.481Z,26.33
2023-06-06T12:47:57.956Z,26.52
2023-06-06T12:52:59.691Z,26.73
2023-06-06T12:58:03.288Z,26.90
2023-06-06T13:03:06.966Z,26.97
2023-06-06T13:08:19.411Z,27.09
2023-06-06T13:13:30.913Z,27.26
2023-06-06T13:18:34.464Z,27.61
2023-06-06T13:23:38.088Z,27.93
2023-06-06T13:28:39.731Z,28.33
2023-06-06T13:33:41.720Z,27.82
2023-06-06T13:38:49.387Z,26.96
2023-06-06T13:43:51.156Z,26.68
2023-06-06T13:48:54.987Z,26.87
2023-06-06T13:53:56.594Z,26.79
2023-06-06T13:58:58.152Z,26.56
2023-06-06T14:04:01.747Z,26.44
2023-06-06T14:09:04.036Z,26.39
2023-06-06T14:14:06.716Z,26.44
2023-06-06T14:19:14.673Z,26.45
2023-06-06T14:24:17.099Z,26.41
2023-06-06T14:29:18.720Z,26.44
2023-06-06T14:34:20.816Z,26.45
2023-06-06T14:39:22.544Z,26.44
2023-06-06T14:44:25.929Z,26.36
2023-06-06T14:49:28.125Z,26.45
2023-06-06T14:54:29.694Z,26.55
2023-06-06T14:59:31.774Z,26.39
2023-06-06T15:04:37.065Z,26.70
2023-06-06T15:09:39.273Z,26.87
2023-06-06T15:14:42.023Z,27.25
2023-06-06T15:19:47.177Z,27.03
2023-06-06T15:24:48.814Z,26.62
2023-06-06T15:29:56.769Z,26.03
2023-06-06T15:34:59.795Z,26.00
2023-06-06T15:40:02.849Z,26.00
2023-06-06T15:45:04.786Z,25.85
2023-06-06T15:50:07.269Z,25.85
2023-06-06T15:55:10.832Z,25.91
2023-06-06T16:00:13.308Z,25.90
2023-06-06T16:05:15.140Z,25.83
2023-06-06T16:10:16.763Z,25.82
2023-06-06T16:15:18.417Z,25.77
2023-06-06T16:20:21.490Z,25.55
2023-06-06T16:25:23.035Z,25.42
2023-06-06T16:30:24.627Z,25.37
2023-06-06T16:35:26.636Z,25.38
2023-06-06T16:40:29.154Z,25.32
2023-06-06T16:45:32.140Z,25.26
2023-06-06T16:50:34.833Z,25.14
2023-06-06T16:55:36.839Z,25.05
2023-06-06T17:00:38.521Z,25.05
2023-06-06T17:05:40.081Z,24.89
2023-06-06T17:10:41.840Z,24.82
2023-06-06T17:15:43.550Z,24.72
2023-06-06T17:20:46.582Z,24.64
2023-06-06T17:25:51.590Z,24.61
2023-06-06T17:30:54.579Z,24.40
2023-06-06T17:35:57.165Z,24.27
2023-06-06T17:40:58.888Z,24.11
2023-06-06T17:46:00.786Z,23.98
2023-06-06T17:51:02.772Z,23.86
2023-06-06T17:56:04.673Z,23.69
2023-06-06T18:01:06.302Z,23.59
2023-06-06T18:06:07.918Z,23.45
2023-06-06T18:11:10.475Z,23.31
2023-06-06T18:16:12.144Z,23.19
2023-06-06T18:21:13.810Z,23.03
2023-06-06T18:26:17.207Z,22.90
2023-06-06T18:31:35.944Z,22.69
2023-06-06T18:36:39.871Z,22.52
2023-06-06T18:41:41.556Z,22.33
2023-06-06T18:46:43.351Z,22.16
2023-06-06T18:51:48.743Z,21.91
2023-06-06T18:56:50.537Z,21.63
2023-06-06T19:01:52.811Z,21.31
2023-06-06T19:06:55.047Z,21.04
2023-06-06T19:11:56.733Z,20.75
2023-06-06T19:16:58.679Z,20.49
2023-06-06T19:22:00.603Z,20.18
2023-06-06T19:27:02.505Z,19.90
2023-06-06T19:32:04.603Z,19.56
2023-06-06T19:37:09.044Z,19.22
2023-06-06T19:42:15.095Z,18.93
2023-06-06T19:47:16.773Z,18.60
2023-06-06T19:52:18.470Z,18.33
2023-06-06T19:57:20.172Z,18.09
2023-06-06T20:02:23.509Z,17.87
2023-06-06T20:07:25.129Z,17.68
2023-06-06T20:12:26.945Z,17.49
2023-06-06T20:17:28.772Z,17.23
2023-06-06T20:22:30.557Z,17.04
2023-06-06T20:27:32.130Z,16.92
2023-06-06T20:32:34.041Z,16.75
2023-06-06T20:37:37.730Z,16.59
2023-06-06T20:42:39.418Z,16.42
2023-06-06T20:47:42.006Z,16.32
2023-06-06T20:52:43.908Z,16.23
2023-06-06T20:57:45.801Z,16.12
2023-06-06T21:02:48.537Z,16.06
2023-06-06T21:07:50.864Z,16.21
2023-06-06T21:12:52.584Z,16.23
2023-06-06T21:17:54.209Z,16.20
2023-06-06T21:22:55.784Z,16.08
2023-06-06T21:27:57.497Z,15.92
2023-06-06T21:33:01.480Z,15.75
2023-06-06T21:38:04.578Z,15.58
2023-06-06T21:43:06.378Z,15.43
2023-06-06T21:48:07.996Z,15.46
2023-06-06T21:53:09.574Z,15.43
2023-06-06T21:58:11.375Z,15.31
2023-06-06T22:03:13.196Z,15.14
2023-06-06T22:08:14.826Z,15.04
2023-06-06T22:13:16.539Z,14.91
2023-06-06T22:18:18.374Z,14.91
2023-06-06T22:23:20.034Z,14.97
2023-06-06T22:28:22.057Z,15.08
2023-06-06T22:33:23.737Z,15.12
2023-06-06T22:38:25.688Z,15.07
2023-06-06T22:43:27.264Z,14.98
2023-06-06T22:48:28.880Z,14.77
2023-06-06T22:53:31.507Z,14.63
2023-06-06T22:58:33.152Z,14.54
2023-06-06T23:03:35.239Z,14.58
2023-06-06T23:08:36.999Z,14.46
2023-06-06T23:13:40.428Z,14.33
2023-06-06T23:18:42.295Z,14.22
2023-06-06T23:23:44.637Z,14.15
2023-06-06T23:28:46.265Z,14.05
2023-06-06T23:33:48.038Z,14.06
2023-06-06T23:38:49.649Z,14.08
2023-06-06T23:43:51.322Z,14.00
2023-06-06T23:48:52.911Z,13.86
2023-06-06T23:53:54.562Z,13.75
2023-06-06T23:58:56.130Z,13.81
